Time;durP1;ratioP1;P1;durP2;ratioP2;P2;SDS_P1;SDS_P2;PMS_P1;PMS_P2;Temp;Humidity;BMP_temperature;BMP_pressure;BME280_temperature;BME280_humidity;BME280_pressure;Samples;Min_cycle;Max_cycle;Signal;HPM_P1;HPM_P2
2021/09/29 00:00:31;;;;;;;5.25;1.42;;;14.00;99.90;;;13.51;100.00;101400.19;4218156;28;20471;-72
2021/09/29 00:02:32;;;;;;;4.80;1.02;;;14.00;99.90;;;13.50;100.00;101399.34;4203743;28;20067;-72
2021/09/29 00:04:33;;;;;;;10.90;1.80;;;13.90;99.90;;;13.61;100.00;101408.84;4203613;28;20056;-72
2021/09/29 00:06:33;;;;;;;4.38;1.95;;;13.90;99.90;;;13.55;100.00;101398.88;4203531;28;20021;-72
2021/09/29 00:08:34;;;;;;;5.80;1.20;;;13.90;99.90;;;13.49;100.00;101395.06;4201747;28;20108;-72
2021/09/29 00:10:38;;;;;;;6.88;1.65;;;13.90;99.90;;;13.51;100.00;101406.31;4203408;28;20396;-72
2021/09/29 00:12:41;;;;;;;3.63;1.00;;;13.80;99.90;;;13.41;100.00;101396.84;4185639;28;20059;-72
2021/09/29 00:14:41;;;;;;;5.55;1.38;;;13.80;99.90;;;13.37;100.00;101400.78;4197841;28;20032;-72
2021/09/29 00:16:42;;;;;;;4.32;1.30;;;13.80;99.90;;;13.27;100.00;101407.03;4203411;28;20059;-72
2021/09/29 00:18:43;;;;;;;9.02;1.83;;;13.80;99.90;;;13.34;100.00;101415.19;4203637;28;20082;-72
2021/09/29 00:20:44;;;;;;;4.85;1.42;;;13.70;99.90;;;13.34;100.00;101415.19;4202334;28;20031;-72
2021/09/29 00:22:45;;;;;;;4.97;1.45;;;13.70;99.90;;;13.39;100.00;101423.47;4202277;28;20068;-72
2021/09/29 00:24:46;;;;;;;5.90;1.00;;;13.70;99.90;;;13.38;100.00;101423.66;4203056;28;20029;-72
2021/09/29 00:26:47;;;;;;;6.97;1.20;;;13.70;99.90;;;13.31;100.00;101423.44;4202227;28;20017;-72
2021/09/29 00:28:48;;;;;;;5.60;1.33;;;13.60;99.90;;;13.29;100.00;101423.59;4203407;28;20107;-72
2021/09/29 00:31:16;;;;;;;5.03;1.23;;;13.70;99.90;;;13.32;100.00;101427.72;4202082;28;20119;-72
2021/09/29 00:33:18;;;;;;;4.88;1.00;;;13.70;99.90;;;13.32;100.00;101424.28;4201622;28;20059;-72
2021/09/29 00:35:19;;;;;;;6.63;2.17;;;13.70;99.90;;;13.35;100.00;101430.06;4202000;28;20039;-72
2021/09/29 00:37:20;;;;;;;8.20;1.80;;;13.70;99.90;;;13.36;100.00;101433.56;4203071;28;20387;-72
2021/09/29 00:39:21;;;;;;;6.15;1.25;;;13.70;99.90;;;13.28;100.00;101429.88;4202817;28;20029;-72
2021/09/29 00:41:22;;;;;;;5.32;1.08;;;13.70;99.90;;;13.37;100.00;101443.19;4201975;28;20411;-72
2021/09/29 00:43:23;;;;;;;10.75;1.80;;;13.70;99.90;;;13.36;100.00;101441.50;4203091;28;20032;-72
2021/09/29 00:45:24;;;;;;;9.45;1.38;;;13.70;99.90;;;13.35;100.00;101443.31;4201866;28;20031;-72
2021/09/29 00:47:27;;;;;;;5.60;1.65;;;13.70;99.90;;;13.28;100.00;101444.94;4201520;28;20024;-72
2021/09/29 00:49:28;;;;;;;5.05;1.17;;;13.70;99.90;;;13.28;100.00;101440.50;4201581;28;20031;-72
2021/09/29 00:51:30;;;;;;;5.82;0.93;;;13.70;99.90;;;13.40;100.00;101443.69;4201701;28;20037;-72
2021/09/29 00:53:31;;;;;;;7.38;1.95;;;13.70;99.90;;;13.41;100.00;101439.25;4201738;28;20024;-72
2021/09/29 00:55:33;;;;;;;14.80;1.77;;;13.70;99.90;;;13.47;100.00;101451.88;4201380;28;20068;-72
2021/09/29 00:57:35;;;;;;;7.90;1.38;;;13.80;99.90;;;13.48;100.00;101456.16;4201713;28;20020;-72
2021/09/29 00:59:37;;;;;;;8.40;2.13;;;13.90;99.90;;;13.49;100.00;101444.56;4201695;28;20112;-72
2021/09/29 01:01:38;;;;;;;6.90;1.65;;;13.90;99.90;;;13.62;100.00;101456.41;4202902;28;20016;-72
2021/09/29 01:03:40;;;;;;;7.35;2.75;;;13.90;99.90;;;13.56;100.00;101456.22;4202703;28;20024;-72
2021/09/29 01:05:42;;;;;;;5.90;2.00;;;13.80;99.90;;;13.61;100.00;101459.22;4201601;28;20029;-72
2021/09/29 01:08:22;;;;;;;6.97;1.50;;;13.90;99.90;;;13.54;100.00;101456.38;4201584;28;20024;-72
2021/09/29 01:10:28;;;;;;;7.20;1.63;;;13.80;99.90;;;13.53;100.00;101467.94;4188329;28;20036;-72
2021/09/29 01:12:55;;;;;;;10.45;2.33;;;13.80;99.90;;;13.64;100.00;101472.16;4202615;28;20043;-72
2021/09/29 01:15:19;;;;;;;10.00;1.77;;;13.80;99.90;;;13.68;100.00;101465.53;4201358;28;20055;-72
2021/09/29 01:17:20;;;;;;;10.50;2.00;;;13.80;99.90;;;13.58;100.00;101463.03;4201440;28;20569;-72
2021/09/29 01:19:59;;;;;;;7.07;2.13;;;13.90;99.90;;;13.65;100.00;101463.22;4184545;28;20025;-72
2021/09/29 01:22:18;;;;;;;11.25;2.15;;;13.90;99.90;;;13.67;100.00;101464.72;4201091;28;20037;-72
2021/09/29 01:24:38;;;;;;;9.07;2.00;;;13.90;99.90;;;13.82;100.00;101457.84;4184960;28;20392;-72
2021/09/29 01:26:41;;;;;;;12.43;2.40;;;14.00;99.90;;;13.75;100.00;101467.41;4188222;28;20033;-72
2021/09/29 01:28:56;;;;;;;6.82;1.55;;;14.00;99.90;;;13.62;100.00;101463.53;4201250;28;20103;-72
2021/09/29 01:31:01;;;;;;;15.85;2.25;;;13.90;99.90;;;13.72;100.00;101454.47;4201167;28;20052;-72
2021/09/29 01:33:03;;;;;;;10.90;2.33;;;14.00;99.90;;;13.69;100.00;101459.25;4200956;28;20040;-72
2021/09/29 01:35:05;;;;;;;6.50;1.98;;;14.00;99.90;;;13.71;100.00;101468.69;4184501;28;20061;-72
2021/09/29 01:37:09;;;;;;;11.57;2.45;;;14.00;99.90;;;13.65;100.00;101473.81;4202275;28;20047;-71
2021/09/29 01:39:10;;;;;;;;;;;14.00;99.90;;;13.59;100.00;101479.75;4201359;28;20040;-72
2021/09/29 01:41:11;;;;;;;11.25;1.55;;;13.90;99.90;;;13.64;100.00;101483.59;4200771;28;20292;-72
2021/09/29 01:43:12;;;;;;;8.90;1.60;;;13.90;99.90;;;13.83;100.00;101487.81;4200937;28;20063;-72
2021/09/29 01:45:13;;;;;;;12.55;1.92;;;14.00;99.90;;;13.69;100.00;101488.41;4202118;28;20029;-71
2021/09/29 01:47:14;;;;;;;15.18;3.28;;;14.00;99.90;;;13.50;100.00;101496.59;4201951;28;20064;-72
2021/09/29 01:49:45;;;;;;;6.53;1.73;;;13.90;99.90;;;13.57;100.00;101494.97;4201712;28;20519;-72
2021/09/29 01:51:50;;;;;;;10.82;1.55;;;14.00;99.90;;;13.72;100.00;101501.34;4201235;28;20070;-71
2021/09/29 01:53:55;;;;;;;11.48;2.03;;;14.00;99.90;;;13.65;100.00;101516.25;4200803;28;20029;-72
2021/09/29 01:55:56;;;;;;;8.05;2.20;;;14.00;99.90;;;13.65;100.00;101513.59;4200665;28;20086;-71
2021/09/29 01:57:57;;;;;;;11.90;1.73;;;13.90;99.90;;;13.44;100.00;101511.28;4200798;28;20104;-71
2021/09/29 01:59:58;;;;;;;10.32;2.20;;;13.90;99.90;;;13.63;100.00;101521.69;4201882;28;20020;-72
2021/09/29 02:01:59;;;;;;;7.85;2.15;;;13.90;99.90;;;13.61;100.00;101507.78;4200496;28;20094;-72
2021/09/29 02:04:00;;;;;;;5.13;1.83;;;14.00;99.90;;;13.67;100.00;101512.44;4200781;28;20033;-71
2021/09/29 02:06:01;;;;;;;5.55;1.30;;;14.00;99.90;;;13.65;100.00;101495.84;4201716;28;20028;-72
2021/09/29 02:08:06;;;;;;;8.88;1.70;;;14.00;99.90;;;13.77;100.00;101497.25;4201741;28;20032;-72
2021/09/29 02:10:09;;;;;;;9.40;1.60;;;14.00;99.90;;;13.82;100.00;101496.78;4201418;28;20031;-71
2021/09/29 02:12:10;;;;;;;10.95;1.90;;;14.10;99.90;;;13.76;100.00;101506.19;4200822;28;20024;-72
2021/09/29 02:14:18;;;;;;;12.48;2.90;;;14.10;99.90;;;13.74;100.00;101518.75;4200532;28;20028;-72
2021/09/29 02:16:18;;;;;;;7.85;1.45;;;14.00;99.90;;;13.78;100.00;101525.44;4200580;28;20395;-72
2021/09/29 02:18:19;;;;;;;8.05;2.10;;;14.10;99.90;;;13.79;100.00;101523.59;4201586;28;20029;-72
2021/09/29 02:20:20;;;;;;;10.43;2.03;;;14.10;99.90;;;13.75;100.00;101524.91;4201776;28;20029;-72
2021/09/29 02:22:21;;;;;;;8.27;2.15;;;14.10;99.90;;;13.82;100.00;101515.34;4183804;28;20535;-72
2021/09/29 02:24:23;;;;;;;12.35;1.60;;;14.10;99.90;;;13.82;100.00;101523.28;4183480;28;20099;-72
2021/09/29 02:26:24;;;;;;;7.40;1.50;;;14.10;99.90;;;13.77;100.00;101530.88;4200325;28;20024;-72
2021/09/29 02:28:26;;;;;;;7.93;2.42;;;14.10;99.90;;;13.84;100.00;101521.31;4200543;28;20522;-72
2021/09/29 02:30:27;;;;;;;9.43;2.35;;;14.10;99.90;;;13.69;100.00;101533.50;4200451;28;20020;-72
2021/09/29 02:32:28;;;;;;;7.32;1.50;;;14.10;99.90;;;13.74;100.00;101536.50;4200235;28;20027;-72
2021/09/29 02:34:29;;;;;;;5.15;1.85;;;14.00;99.90;;;13.66;100.00;101533.78;4201525;28;20029;-72
2021/09/29 02:36:30;;;;;;;7.22;1.60;;;14.00;99.90;;;13.64;100.00;101530.47;4200239;28;20127;-72
2021/09/29 02:38:30;;;;;;;4.78;1.40;;;14.00;99.90;;;13.55;100.00;101520.81;4217045;28;20063;-72
2021/09/29 02:40:31;;;;;;;7.97;1.58;;;13.90;99.90;;;13.62;100.00;101527.16;4201339;28;20518;-72
2021/09/29 02:42:32;;;;;;;10.65;1.52;;;13.90;99.90;;;13.58;100.00;101533.75;4200252;28;20028;-72
2021/09/29 02:44:34;;;;;;;6.80;1.50;;;13.90;99.90;;;13.58;100.00;101531.94;4201638;28;20040;-72
2021/09/29 02:46:37;;;;;;;5.57;1.50;;;13.90;99.90;;;13.48;100.00;101525.91;4200203;28;20020;-72
2021/09/29 02:48:38;;;;;;;9.88;2.55;;;13.90;99.90;;;13.44;100.00;101529.03;4200305;28;20020;-72
2021/09/29 02:50:40;;;;;;;10.95;2.75;;;13.80;99.90;;;13.32;100.00;101523.97;4201278;28;20053;-72
2021/09/29 02:52:41;;;;;;;10.48;2.75;;;13.70;99.90;;;13.46;100.00;101538.50;4183664;28;20032;-72
2021/09/29 02:54:42;;;;;;;6.63;1.95;;;13.80;99.90;;;13.43;100.00;101552.06;4201157;28;20103;-72
2021/09/29 02:56:43;;;;;;;6.10;1.15;;;13.80;99.90;;;13.41;100.00;101548.69;4200253;28;20032;-72
2021/09/29 02:58:44;;;;;;;9.05;1.77;;;13.80;99.90;;;13.55;100.00;101560.56;4201330;28;20484;-72
2021/09/29 03:00:44;;;;;;;7.38;1.88;;;13.80;99.90;;;13.55;100.00;101565.88;4200307;28;20120;-72
2021/09/29 03:02:45;;;;;;;7.25;1.60;;;13.80;99.90;;;13.62;100.00;101559.78;4201402;28;20404;-72
2021/09/29 03:04:46;;;;;;;8.00;1.50;;;13.90;99.90;;;13.50;100.00;101566.31;4200183;28;20039;-72
2021/09/29 03:06:47;;;;;;;5.00;1.98;;;13.90;99.90;;;13.55;100.00;101564.06;4200001;28;20114;-72
2021/09/29 03:08:48;;;;;;;7.20;1.42;;;13.80;99.90;;;13.44;100.00;101566.13;4200268;28;20055;-72
2021/09/29 03:10:49;;;;;;;9.57;1.67;;;13.80;99.90;;;13.64;100.00;101578.22;4201141;28;20033;-72
2021/09/29 03:12:50;;;;;;;8.48;1.95;;;13.90;99.90;;;13.71;100.00;101580.06;4200084;28;20032;-72
2021/09/29 03:14:51;;;;;;;11.77;3.03;;;13.90;99.90;;;13.69;100.00;101587.34;4201192;28;20074;-72
2021/09/29 03:16:52;;;;;;;8.95;2.00;;;13.90;99.90;;;13.56;100.00;101591.41;4201356;28;20024;-72
2021/09/29 03:18:54;;;;;;;4.65;1.30;;;14.00;99.90;;;13.60;100.00;101592.75;4201310;28;20074;-72
2021/09/29 03:20:55;;;;;;;7.80;1.75;;;13.90;99.90;;;13.61;100.00;101594.41;4201243;28;20391;-72
2021/09/29 03:22:57;;;;;;;5.47;0.93;;;13.80;99.90;;;13.52;100.00;101601.50;4199960;28;20033;-71
2021/09/29 03:24:59;;;;;;;10.95;1.88;;;13.80;99.90;;;13.47;100.00;101606.41;4199917;28;20028;-71
2021/09/29 03:27:00;;;;;;;7.35;1.50;;;13.70;99.90;;;13.47;100.00;101610.88;4199914;28;20032;-71
2021/09/29 03:29:01;;;;;;;6.18;1.10;;;13.80;99.90;;;13.39;100.00;101613.44;4201185;28;20032;-71
2021/09/29 03:31:02;;;;;;;5.40;1.33;;;13.70;99.90;;;13.33;100.00;101609.59;4199872;28;20061;-72
2021/09/29 03:33:06;;;;;;;3.95;1.50;;;13.70;99.90;;;13.30;100.00;101613.38;4199860;28;20021;-72
2021/09/29 03:35:08;;;;;;;;;;;13.60;99.90;;;13.37;100.00;101618.91;4184068;28;20025;-72
2021/09/29 03:37:09;;;;;;;4.82;0.95;;;13.60;99.90;;;13.22;100.00;101620.44;4199848;28;19912;-72
2021/09/29 03:39:10;;;;;;;4.80;1.40;;;13.60;99.90;;;13.34;100.00;101627.19;4200805;28;20021;-72
2021/09/29 03:41:11;;;;;;;4.93;1.20;;;13.60;99.90;;;13.25;100.00;101623.63;4199874;28;20048;-72
2021/09/29 03:43:12;;;;;;;3.22;1.10;;;13.60;99.90;;;13.28;100.00;101625.97;4200206;28;20499;-72
2021/09/29 03:45:13;;;;;;;2.65;1.30;;;13.50;99.90;;;13.32;100.00;101632.59;4202864;28;20050;-72
2021/09/29 03:47:14;;;;;;;1.73;0.80;;;13.50;99.90;;;13.20;100.00;101628.53;4203844;28;20032;-72
2021/09/29 03:49:15;;;;;;;4.57;1.00;;;13.40;99.90;;;13.29;100.00;101635.56;4202599;28;20074;-72
2021/09/29 03:51:16;;;;;;;3.28;1.13;;;13.40;99.90;;;13.16;100.00;101642.25;4186173;28;20403;-72
2021/09/29 03:53:17;;;;;;;2.95;0.75;;;13.40;99.90;;;13.02;100.00;101646.19;4202682;28;20533;-71
2021/09/29 03:55:18;;;;;;;2.80;1.00;;;13.30;99.90;;;12.89;100.00;101645.72;4203621;28;20025;-72
2021/09/29 03:57:19;;;;;;;3.72;0.80;;;13.20;99.90;;;12.78;100.00;101644.09;4203806;28;20384;-71
2021/09/29 03:59:20;;;;;;;3.72;1.20;;;13.20;99.90;;;12.80;100.00;101646.63;4203891;28;20079;-72
2021/09/29 04:01:20;;;;;;;6.03;1.02;;;13.20;99.90;;;12.88;100.00;101646.69;4202641;28;20415;-71
2021/09/29 04:03:21;;;;;;;5.60;1.13;;;13.10;99.90;;;12.85;100.00;101656.75;4203647;28;20094;-72
2021/09/29 04:05:22;;;;;;;6.05;1.00;;;13.10;99.90;;;12.96;100.00;101672.47;4202540;28;20103;-72
2021/09/29 04:07:24;;;;;;;3.60;1.10;;;13.10;99.90;;;12.77;100.00;101663.66;4202497;28;20028;-72
2021/09/29 04:09:25;;;;;;;3.50;1.48;;;13.10;99.90;;;12.81;100.00;101681.88;4203464;28;20032;-72
2021/09/29 04:11:27;;;;;;;5.10;1.52;;;13.00;99.90;;;12.90;100.00;101676.53;4203639;28;20046;-71
2021/09/29 04:13:28;;;;;;;6.88;1.10;;;13.10;99.90;;;13.00;100.00;101669.34;4203548;28;20029;-71
2021/09/29 04:15:30;;;;;;;4.85;1.00;;;13.10;99.90;;;13.02;100.00;101682.47;4202494;28;20058;-72
2021/09/29 04:17:31;;;;;;;2.78;1.13;;;13.10;99.90;;;12.92;100.00;101679.88;4202416;28;20420;-72
2021/09/29 04:19:32;;;;;;;5.88;2.00;;;13.10;99.90;;;12.98;100.00;101681.09;4203588;28;20056;-71
2021/09/29 04:21:33;;;;;;;7.07;1.13;;;13.10;99.90;;;12.99;100.00;101683.56;4203816;28;20040;-72
2021/09/29 04:23:35;;;;;;;3.67;1.20;;;13.10;99.90;;;12.89;100.00;101685.47;4202425;28;20067;-71
2021/09/29 04:25:36;;;;;;;4.28;1.35;;;13.10;99.90;;;12.88;100.00;101697.03;4203319;28;20035;-71
2021/09/29 04:27:38;;;;;;;4.43;1.10;;;13.10;99.90;;;12.88;100.00;101691.72;4202175;28;20507;-71
2021/09/29 04:29:39;;;;;;;2.67;0.88;;;13.10;99.90;;;12.89;100.00;101701.34;4202204;28;20446;-71
2021/09/29 04:31:40;;;;;;;3.17;1.13;;;13.00;99.90;;;12.87;100.00;101699.81;4202198;28;20025;-71
2021/09/29 04:33:41;;;;;;;2.45;0.60;;;13.00;99.90;;;12.70;100.00;101704.91;4202105;28;20074;-71
2021/09/29 04:35:42;;;;;;;4.05;1.10;;;13.00;99.90;;;12.65;100.00;101701.03;4203263;28;20032;-71
2021/09/29 04:37:43;;;;;;;3.28;1.10;;;12.90;99.90;;;12.50;100.00;101708.63;4203345;28;20028;-71
2021/09/29 04:39:44;;;;;;;6.32;1.60;;;12.90;99.90;;;12.55;100.00;101716.13;4201807;28;20032;-71
2021/09/29 04:41:45;;;;;;;6.43;1.05;;;12.80;99.90;;;12.53;100.00;101720.72;4201821;28;20048;-71
2021/09/29 04:43:46;;;;;;;4.15;1.20;;;12.80;99.90;;;12.33;100.00;101727.91;4224199;28;20024;-71
2021/09/29 04:45:47;;;;;;;2.35;1.25;;;12.70;99.90;;;12.37;100.00;101720.50;4201007;28;20055;-72
2021/09/29 04:47:48;;;;;;;3.83;1.00;;;12.60;99.90;;;12.54;100.00;101733.00;4203290;28;20032;-71
2021/09/29 04:49:49;;;;;;;6.68;1.27;;;12.70;99.90;;;12.53;100.00;101736.59;4202839;28;20523;-71
2021/09/29 04:51:50;;;;;;;2.15;1.00;;;12.60;99.90;;;12.59;100.00;101741.31;4203128;28;20075;-71
2021/09/29 04:53:51;;;;;;;4.43;1.10;;;12.70;99.90;;;12.47;100.00;101739.81;4202904;28;20025;-71
2021/09/29 04:55:52;;;;;;;2.30;0.95;;;12.60;99.90;;;12.34;100.00;101749.88;4202804;28;20487;-71
2021/09/29 04:57:53;;;;;;;4.60;0.90;;;12.60;99.90;;;12.39;100.00;101743.22;4201863;28;20020;-71
2021/09/29 04:59:54;;;;;;;4.57;1.08;;;12.60;99.90;;;12.29;100.00;101741.53;4201838;28;20064;-71
2021/09/29 05:01:55;;;;;;;1.60;0.80;;;12.60;99.90;;;12.41;100.00;101746.53;4201319;28;20100;-71
2021/09/29 05:03:56;;;;;;;4.00;0.88;;;12.60;99.90;;;12.47;100.00;101755.72;4201716;28;20028;-71
2021/09/29 05:05:57;;;;;;;3.08;0.90;;;12.60;99.90;;;12.47;100.00;101768.94;4202778;28;20107;-71
2021/09/29 05:08:02;;;;;;;4.53;1.88;;;12.60;99.90;;;12.40;100.00;101760.72;4202811;28;20388;-71
2021/09/29 05:10:09;;;;;;;3.03;1.02;;;12.60;99.90;;;12.16;100.00;101769.13;4202373;28;20027;-71
2021/09/29 05:12:27;;;;;;;3.22;1.40;;;12.50;99.90;;;12.07;100.00;101769.13;4201605;28;20028;-72
2021/09/29 05:14:28;;;;;;;4.00;1.00;;;12.40;99.90;;;12.00;100.00;101768.03;4201624;28;20051;-72
2021/09/29 05:16:29;;;;;;;5.07;1.33;;;12.30;99.90;;;12.05;100.00;101779.88;4201418;28;20044;-71
2021/09/29 05:18:30;;;;;;;3.85;0.90;;;12.30;99.90;;;12.04;100.00;101777.34;4201786;28;20028;-71
2021/09/29 05:20:31;;;;;;;3.05;1.15;;;12.30;99.90;;;11.99;100.00;101787.53;4201200;28;20107;-72
2021/09/29 05:22:32;;;;;;;3.30;1.00;;;12.20;99.90;;;11.96;100.00;101782.50;4235011;28;20372;-72
2021/09/29 05:24:33;;;;;;;4.25;0.70;;;12.30;99.90;;;11.99;100.00;101793.66;4200997;28;20024;-72
2021/09/29 05:26:34;;;;;;;2.80;0.77;;;12.20;99.90;;;12.01;100.00;101789.03;4184631;28;20088;-71
2021/09/29 05:28:40;;;;;;;3.53;1.00;;;12.20;99.90;;;12.01;100.00;101786.41;4201763;28;20071;-71
2021/09/29 05:30:41;;;;;;;3.55;0.80;;;12.20;99.90;;;12.00;100.00;101786.56;4200760;28;20028;-71
2021/09/29 05:32:42;;;;;;;2.08;0.80;;;12.20;99.90;;;12.07;100.00;101796.41;4203319;28;20025;-72
2021/09/29 05:34:43;;;;;;;2.00;0.82;;;12.20;99.90;;;12.14;100.00;101805.47;4202160;28;20020;-71
2021/09/29 05:36:45;;;;;;;1.67;0.70;;;12.20;99.90;;;12.02;100.00;101800.47;4203314;28;20395;-71
2021/09/29 05:38:46;;;;;;;2.25;0.90;;;12.10;99.90;;;11.87;100.00;101809.78;4202084;28;20052;-71
2021/09/29 05:40:48;;;;;;;2.88;1.27;;;12.10;99.90;;;11.87;100.00;101810.63;4218558;28;20036;-71
2021/09/29 05:42:49;;;;;;;1.80;0.73;;;12.10;99.90;;;11.86;100.00;101813.38;4201962;28;20021;-71
2021/09/29 05:44:50;;;;;;;2.83;1.33;;;12.10;99.90;;;11.92;100.00;101816.31;4203212;28;20081;-71
2021/09/29 05:46:51;;;;;;;1.63;0.77;;;12.10;99.90;;;12.03;100.00;101818.00;4201832;28;20029;-72
2021/09/29 05:48:52;;;;;;;5.10;1.10;;;12.10;99.90;;;11.81;100.00;101823.56;4201621;28;20071;-73
2021/09/29 05:50:53;;;;;;;4.38;1.00;;;12.00;99.90;;;11.62;100.00;101821.69;4201037;28;20115;-71
2021/09/29 05:52:55;;;;;;;2.70;0.75;;;12.00;99.90;;;11.84;100.00;101831.22;4203131;28;20044;-72
2021/09/29 05:54:56;;;;;;;2.72;0.98;;;12.00;99.90;;;11.95;100.00;101845.13;4203112;28;20055;-71
2021/09/29 05:56:57;;;;;;;3.20;1.15;;;12.00;99.90;;;11.97;100.00;101842.38;4203146;28;20089;-71
2021/09/29 05:58:58;;;;;;;3.00;1.30;;;12.00;99.90;;;12.05;100.00;101850.44;4201967;28;20036;-71
2021/09/29 06:00:59;;;;;;;4.45;0.93;;;12.10;99.90;;;12.10;99.52;101854.34;4203248;28;20033;-71
2021/09/29 06:03:00;;;;;;;3.60;1.10;;;12.20;99.90;;;12.09;99.34;101860.63;4202056;28;20025;-72
2021/09/29 06:05:02;;;;;;;3.53;0.90;;;12.20;99.90;;;12.10;99.25;101869.34;4235453;28;20043;-72
2021/09/29 06:07:03;;;;;;;4.32;1.23;;;12.20;99.90;;;12.08;100.00;101877.44;4201559;28;20016;-71
2021/09/29 06:09:05;;;;;;;2.35;0.80;;;12.20;99.90;;;12.02;99.23;101878.00;4202938;28;20036;-71
2021/09/29 06:11:06;;;;;;;1.95;0.73;;;12.20;99.90;;;11.94;100.00;101880.50;4201784;28;20589;-72
2021/09/29 06:13:07;;;;;;;3.50;1.77;;;12.20;99.90;;;12.00;100.00;101879.13;4201935;28;20503;-72
2021/09/29 06:15:10;;;;;;;3.88;1.50;;;12.20;99.90;;;12.07;99.52;101886.34;4202069;28;20043;-72
2021/09/29 06:17:12;;;;;;;2.50;0.80;;;12.20;99.90;;;11.95;99.57;101879.50;4203096;28;20025;-72
2021/09/29 06:19:16;;;;;;;4.55;2.33;;;12.20;99.90;;;12.01;99.55;101891.34;4201715;28;20044;-72
2021/09/29 06:21:18;;;;;;;4.88;2.08;;;12.20;99.90;;;11.84;100.00;101884.09;4234427;28;20106;-72
2021/09/29 06:23:21;;;;;;;6.80;1.20;;;12.20;99.90;;;11.81;100.00;101901.06;4202845;28;20040;-72
2021/09/29 06:25:22;;;;;;;2.97;1.05;;;12.10;99.90;;;11.90;100.00;101902.03;4202787;28;20021;-71
2021/09/29 06:27:23;;;;;;;3.42;1.23;;;12.10;99.90;;;11.85;100.00;101915.69;4202698;28;20588;-72
2021/09/29 06:29:24;;;;;;;3.70;1.00;;;12.10;99.90;;;11.99;99.98;101925.88;4202759;28;20043;-72
2021/09/29 06:31:26;;;;;;;4.65;0.90;;;12.10;99.90;;;11.96;100.00;101920.84;4202786;28;20021;-72
2021/09/29 06:33:27;;;;;;;8.55;1.10;;;12.20;99.90;;;11.84;99.72;101916.66;4201973;28;20382;-72
2021/09/29 06:35:29;;;;;;;5.38;1.52;;;12.20;99.90;;;11.90;100.00;101921.41;4201763;28;20059;-72
2021/09/29 06:37:31;;;;;;;4.88;1.92;;;12.20;99.90;;;11.87;99.67;101929.59;4201173;28;20016;-71
2021/09/29 06:39:33;;;;;;;4.82;0.90;;;12.20;99.90;;;11.83;100.00;101928.19;4199799;28;20035;-71
2021/09/29 06:41:33;;;;;;;5.60;1.70;;;12.10;99.90;;;11.89;99.93;101935.56;4201243;28;20036;-71
2021/09/29 06:43:34;;;;;;;7.05;1.65;;;12.20;99.90;;;11.62;100.00;101930.03;4201278;28;20029;-72
2021/09/29 06:45:35;;;;;;;2.03;0.98;;;12.10;99.90;;;11.61;100.00;101947.72;4201319;28;20035;-73
2021/09/29 06:47:40;;;;;;;2.08;0.80;;;12.00;99.90;;;11.73;100.00;101955.56;4201587;28;20027;-73
2021/09/29 06:49:41;;;;;;;3.20;1.23;;;12.00;99.90;;;11.80;100.00;101949.59;4201187;28;20045;-73
2021/09/29 06:51:42;;;;;;;3.22;1.17;;;12.10;99.90;;;11.75;100.00;101954.47;4201459;28;20032;-73
2021/09/29 06:53:43;;;;;;;5.65;2.22;;;12.10;99.90;;;11.74;100.00;101960.72;4201316;28;20029;-73
2021/09/29 06:55:45;;;;;;;33.40;23.73;;;12.10;99.90;;;11.72;100.00;101967.09;4201367;28;20020;-73
2021/09/29 06:57:46;;;;;;;4.60;1.40;;;12.10;99.90;;;11.77;100.00;101968.38;4201497;28;20024;-73
2021/09/29 06:59:47;;;;;;;8.13;1.40;;;12.00;99.90;;;11.93;99.87;101974.00;4201395;28;20088;-73
2021/09/29 07:01:48;;;;;;;4.80;1.30;;;12.10;99.90;;;11.81;100.00;101975.09;4200302;28;20060;-73
2021/09/29 07:03:50;;;;;;;4.57;1.55;;;12.10;99.90;;;11.77;100.00;101978.94;4201396;28;20066;-73
2021/09/29 07:05:51;;;;;;;3.70;1.95;;;12.20;99.90;;;11.68;100.00;101973.63;4183548;28;20036;-73
2021/09/29 07:07:52;;;;;;;4.18;1.08;;;12.10;99.90;;;11.92;100.00;101993.47;4201373;28;20104;-73
2021/09/29 07:09:53;;;;;;;4.47;1.17;;;12.20;99.90;;;11.85;100.00;101981.78;4201171;28;20025;-73
2021/09/29 07:11:53;;;;;;;2.10;1.00;;;12.20;99.90;;;11.80;100.00;101983.97;4201442;28;20032;-73
2021/09/29 07:13:54;;;;;;;3.47;1.70;;;12.10;99.90;;;11.87;100.00;101998.34;4200127;28;20028;-73
2021/09/29 07:15:55;;;;;;;5.75;1.63;;;12.20;99.90;;;11.78;100.00;101993.84;4200163;28;20423;-73
2021/09/29 07:18:00;;;;;;;4.40;1.10;;;12.20;99.90;;;11.88;100.00;101992.09;4183326;28;20063;-73
2021/09/29 07:20:03;;;;;;;3.42;1.05;;;12.20;99.90;;;12.04;100.00;101997.69;4203115;28;20020;-73
2021/09/29 07:22:04;;;;;;;4.68;1.08;;;12.30;99.90;;;12.14;99.28;101993.28;4204583;28;20052;-73
2021/09/29 07:24:05;;;;;;;6.38;1.00;;;12.40;99.90;;;12.19;99.48;102004.28;4204198;28;20037;-74
2021/09/29 07:26:06;;;;;;;4.78;1.00;;;12.50;99.90;;;12.16;99.80;102004.56;4203091;28;20104;-73
2021/09/29 07:28:07;;;;;;;6.60;0.95;;;12.50;99.90;;;12.23;99.34;102011.94;4204232;28;20107;-74
2021/09/29 07:30:09;;;;;;;3.33;1.02;;;12.50;99.90;;;12.17;99.61;102006.22;4203213;28;20094;-74
2021/09/29 07:32:10;;;;;;;3.88;1.17;;;12.50;99.90;;;12.31;98.89;102017.38;4204260;28;20036;-74
2021/09/29 07:34:12;;;;;;;3.47;1.13;;;12.60;99.90;;;12.33;99.26;102023.41;4203039;28;20020;-73
2021/09/29 07:36:13;;;;;;;5.72;1.00;;;12.60;99.90;;;12.37;99.02;102027.44;4204088;28;20024;-73
2021/09/29 07:38:14;;;;;;;2.60;1.10;;;12.70;99.90;;;12.34;97.95;102035.63;4203038;28;20024;-74
2021/09/29 07:40:14;;;;;;;8.27;2.65;;;12.70;99.90;;;12.34;98.08;102028.53;4203951;28;20044;-74
2021/09/29 07:42:15;;;;;;;6.68;1.42;;;12.70;99.90;;;12.38;97.61;102026.47;4204054;28;20028;-75
2021/09/29 07:44:16;;;;;;;3.30;1.08;;;12.70;99.90;;;12.35;97.85;102037.31;4202810;28;20033;-75
2021/09/29 07:46:17;;;;;;;3.45;1.00;;;12.80;99.90;;;12.28;99.13;102041.47;4204041;28;20031;-75
2021/09/29 07:48:18;;;;;;;8.32;1.23;;;12.70;99.90;;;12.45;97.64;102046.13;4203896;28;20539;-75
2021/09/29 07:50:20;;;;;;;3.45;1.08;;;12.80;99.90;;;12.48;95.99;102037.91;4202736;28;20499;-75
2021/09/29 07:52:21;;;;;;;2.90;1.10;;;12.90;99.90;;;12.47;97.26;102049.47;4203843;28;20020;-75
2021/09/29 07:54:22;;;;;;;8.10;1.80;;;12.90;99.90;;;12.40;97.48;102049.16;4203795;28;20035;-74
2021/09/29 07:56:24;;;;;;;4.45;1.20;;;12.90;99.90;;;12.56;95.41;102051.28;4203964;28;20082;-75
2021/09/29 07:58:25;;;;;;;41.35;30.98;;;12.90;99.90;;;12.72;95.34;102056.91;4202683;28;20589;-75
2021/09/29 08:00:26;;;;;;;5.85;2.75;;;13.00;99.90;;;12.74;94.65;102062.88;4203678;28;20020;-75
2021/09/29 08:02:27;;;;;;;8.80;2.30;;;13.10;99.90;;;12.69;95.80;102062.47;4202711;28;20020;-75
2021/09/29 08:04:28;;;;;;;6.63;1.33;;;13.10;99.90;;;12.77;95.64;102070.56;4202591;28;20032;-75
2021/09/29 08:06:29;;;;;;;3.65;1.40;;;13.20;99.90;;;12.82;95.88;102076.25;4202386;28;20084;-75
2021/09/29 08:08:31;;;;;;;18.27;11.02;;;13.20;99.90;;;12.87;95.34;102082.00;4202197;28;20021;-75
2021/09/29 08:10:32;;;;;;;98.18;59.90;;;13.30;99.90;;;12.94;94.06;102067.22;4202253;28;20025;-75
2021/09/29 08:12:33;;;;;;;7.47;1.95;;;13.40;99.90;;;13.02;92.56;102079.78;4203574;28;20020;-75
2021/09/29 08:14:39;;;;;;;7.22;1.73;;;13.40;99.90;;;13.04;92.64;102083.13;4185723;28;20053;-75
2021/09/29 08:16:40;;;;;;;9.85;1.58;;;13.50;99.90;;;13.00;92.45;102076.41;4217933;28;20132;-75
2021/09/29 08:18:41;;;;;;;7.28;1.30;;;13.50;99.90;;;13.06;91.34;102087.28;4192186;28;20510;-75
2021/09/29 08:20:43;;;;;;;4.60;1.80;;;13.50;99.90;;;13.12;91.69;102085.94;4203537;28;20074;-75
2021/09/29 08:22:46;;;;;;;7.03;1.50;;;13.60;99.90;;;13.14;91.95;102090.09;4202345;28;20025;-75
2021/09/29 08:24:58;;;;;;;3.70;1.10;;;13.70;99.90;;;13.14;92.47;102098.06;4203192;28;20028;-75